createdAt,value
2022-12-01T00:02:14.705Z,24.77
2022-12-01T00:05:17.754Z,27.10
2022-12-01T00:08:20.443Z,24.67
2022-12-01T00:11:23.398Z,24.55
2022-12-01T00:14:25.952Z,24.95
2022-12-01T00:17:30.378Z,24.10
2022-12-01T00:20:34.982Z,24.90
2022-12-01T00:23:37.840Z,25.65
2022-12-01T00:26:41.124Z,24.23
2022-12-01T00:29:44.146Z,24.83
2022-12-01T00:32:47.404Z,26.07
2022-12-01T00:35:57.883Z,25.67
2022-12-01T00:39:00.525Z,26.42
2022-12-01T00:42:04.657Z,26.95
2022-12-01T00:45:09.710Z,25.35
2022-12-01T00:48:12.630Z,25.30
2022-12-01T00:51:15.301Z,23.77
2022-12-01T00:54:18.255Z,25.67
2022-12-01T00:57:21.002Z,24.25
2022-12-01T01:00:25.113Z,24.37
2022-12-01T01:03:29.570Z,24.97
2022-12-01T01:06:32.654Z,22.80
2022-12-01T01:09:35.329Z,21.85
2022-12-01T01:12:39.544Z,22.65
2022-12-01T01:15:42.321Z,22.87
2022-12-01T01:18:45.880Z,22.43
2022-12-01T01:21:49.722Z,22.40
2022-12-01T01:24:52.668Z,22.90
2022-12-01T01:27:55.258Z,21.95
2022-12-01T01:30:58.845Z,21.95
2022-12-01T01:34:01.557Z,21.57
2022-12-01T01:37:07.871Z,20.88
2022-12-01T01:40:11.018Z,20.98
2022-12-01T01:43:19.070Z,20.75
2022-12-01T01:46:26.555Z,20.55
2022-12-01T01:49:29.562Z,20.63
2022-12-01T01:52:36.117Z,21.20
2022-12-01T01:55:39.324Z,20.70
2022-12-01T01:58:42.846Z,21.83
2022-12-01T02:01:56.393Z,20.60
2022-12-01T02:05:02.937Z,20.37
2022-12-01T02:08:06.408Z,25.37
2022-12-01T02:11:28.131Z,23.58
2022-12-01T02:14:30.736Z,21.10
2022-12-01T02:17:57.047Z,20.20
2022-12-01T02:21:24.895Z,22.00
2022-12-01T02:24:51.056Z,20.37
2022-12-01T02:28:14.526Z,20.45
2022-12-01T02:31:25.845Z,19.90
2022-12-01T02:34:34.868Z,19.50
2022-12-01T02:37:46.553Z,21.07
2022-12-01T02:40:56.065Z,19.95
2022-12-01T02:44:31.451Z,20.70
2022-12-01T02:47:36.718Z,19.95
2022-12-01T02:50:40.906Z,21.15
2022-12-01T02:53:44.574Z,19.20
2022-12-01T02:56:52.323Z,19.75
2022-12-01T02:59:55.627Z,18.30
2022-12-01T03:03:27.599Z,20.80
2022-12-01T03:07:02.682Z,20.00
2022-12-01T03:10:17.914Z,21.87
2022-12-01T03:13:40.728Z,20.37
2022-12-01T03:16:53.934Z,19.27
2022-12-01T03:20:08.852Z,19.55
2022-12-01T03:23:16.823Z,19.40
2022-12-01T03:26:23.599Z,19.50
2022-12-01T03:29:32.064Z,17.20
2022-12-01T03:32:50.588Z,17.42
2022-12-01T03:36:03.410Z,17.23
2022-12-01T03:39:12.408Z,18.17
2022-12-01T03:42:23.716Z,20.40
2022-12-01T03:45:47.918Z,19.58
2022-12-01T03:48:54.459Z,18.80
2022-12-01T03:52:18.525Z,20.98
2022-12-01T03:55:37.909Z,19.92
2022-12-01T03:58:45.568Z,19.93
2022-12-01T04:01:48.869Z,20.23
2022-12-01T04:04:51.899Z,20.60
2022-12-01T04:07:54.714Z,20.67
2022-12-01T04:10:57.689Z,20.62
2022-12-01T04:14:00.369Z,17.17
2022-12-01T04:17:03.366Z,16.87
2022-12-01T04:20:10.278Z,19.62
2022-12-01T04:23:36.395Z,21.42
2022-12-01T04:26:40.309Z,20.65
2022-12-01T04:29:43.239Z,19.07
2022-12-01T04:32:45.897Z,20.30
2022-12-01T04:36:01.710Z,20.65
2022-12-01T04:39:04.533Z,21.40
2022-12-01T04:42:07.896Z,18.83
2022-12-01T04:45:10.712Z,20.20
2022-12-01T04:48:17.732Z,21.23
2022-12-01T04:51:23.894Z,22.80
2022-12-01T04:54:27.171Z,17.25
2022-12-01T04:57:29.979Z,20.05
2022-12-01T05:00:33.629Z,20.52
2022-12-01T05:03:38.663Z,19.35
2022-12-01T05:06:41.670Z,20.37
2022-12-01T05:09:44.233Z,22.08
2022-12-01T05:12:47.111Z,17.97
2022-12-01T05:15:49.896Z,18.77
2022-12-01T05:19:16.031Z,22.15
2022-12-01T05:22:31.450Z,19.87
2022-12-01T05:25:42.674Z,19.97
2022-12-01T05:28:45.272Z,20.95
2022-12-01T05:31:48.283Z,21.50
2022-12-01T05:34:51.010Z,19.92
2022-12-01T05:37:53.965Z,23.30
2022-12-01T05:40:56.740Z,23.20
2022-12-01T05:43:59.690Z,24.55
2022-12-01T05:47:04.887Z,32.25
2022-12-01T05:50:08.627Z,23.23
2022-12-01T05:53:13.159Z,21.92
2022-12-01T05:56:15.990Z,19.83
2022-12-01T05:59:18.531Z,24.35
2022-12-01T06:02:22.000Z,23.20
2022-12-01T06:05:26.356Z,26.00
2022-12-01T06:08:28.980Z,23.97
2022-12-01T06:11:31.928Z,22.85
2022-12-01T06:14:34.431Z,23.55
2022-12-01T06:17:40.372Z,25.23
2022-12-01T06:20:43.425Z,26.05
2022-12-01T06:23:46.405Z,27.57
2022-12-01T06:26:49.091Z,27.55
2022-12-01T06:29:53.169Z,26.50
2022-12-01T06:32:55.994Z,25.83
2022-12-01T06:36:05.522Z,26.75
2022-12-01T06:39:12.479Z,25.50
2022-12-01T06:42:15.692Z,25.33
2022-12-01T06:45:18.430Z,35.97
2022-12-01T06:48:21.472Z,35.08
2022-12-01T06:51:24.102Z,28.12
2022-12-01T06:54:28.394Z,27.83
2022-12-01T06:57:31.580Z,29.42
2022-12-01T07:00:34.509Z,28.62
2022-12-01T07:03:39.098Z,29.00
2022-12-01T07:06:42.690Z,28.30
2022-12-01T07:09:45.575Z,28.33
2022-12-01T07:12:48.553Z,28.75
2022-12-01T07:15:52.131Z,28.77
2022-12-01T07:18:55.138Z,27.13
2022-12-01T07:21:57.726Z,25.63
2022-12-01T07:25:00.625Z,25.27
2022-12-01T07:28:04.517Z,25.65
2022-12-01T07:31:13.862Z,23.05
2022-12-01T07:34:16.505Z,22.50
2022-12-01T07:37:19.454Z,23.60
2022-12-01T07:40:22.272Z,25.08
2022-12-01T07:43:25.294Z,27.15
2022-12-01T07:46:29.026Z,25.15
2022-12-01T07:49:32.098Z,24.33
2022-12-01T07:52:34.667Z,25.25
2022-12-01T07:55:37.712Z,24.60
2022-12-01T07:58:40.565Z,24.80
2022-12-01T08:01:44.888Z,29.00
2022-12-01T08:04:47.954Z,29.00
2022-12-01T08:07:50.625Z,27.50
2022-12-01T08:10:53.981Z,28.25
2022-12-01T08:13:56.963Z,25.77
2022-12-01T08:16:59.892Z,24.75
2022-12-01T08:20:02.625Z,22.60
2022-12-01T08:23:05.605Z,21.02
2022-12-01T08:26:13.021Z,19.83
2022-12-01T08:29:20.081Z,19.80
2022-12-01T08:32:23.186Z,19.92
2022-12-01T08:35:26.180Z,20.53
2022-12-01T09:57:37.033Z,13.13
2022-12-01T10:00:43.966Z,11.88
2022-12-01T10:03:54.721Z,13.57
2022-12-01T10:07:25.336Z,12.37
2022-12-01T10:10:38.328Z,13.18
2022-12-01T10:13:43.746Z,13.13
2022-12-01T10:17:15.305Z,12.13
2022-12-01T10:20:22.557Z,13.53
2022-12-01T10:23:40.606Z,12.25
2022-12-01T10:26:57.949Z,13.70
2022-12-01T10:30:10.302Z,13.10
2022-12-01T10:33:41.854Z,13.07
2022-12-01T10:36:44.861Z,14.57
2022-12-01T10:39:51.990Z,13.18
2022-12-01T10:42:55.503Z,13.62
2022-12-01T10:46:01.573Z,12.88
2022-12-01T10:49:16.273Z,14.02
2022-12-01T10:52:41.558Z,13.40
2022-12-01T10:55:48.170Z,12.52
2022-12-01T10:58:55.378Z,14.75
2022-12-01T11:01:59.783Z,11.63
2022-12-01T11:05:18.785Z,14.43
2022-12-01T11:08:46.997Z,11.57
2022-12-01T11:12:01.787Z,11.77
2022-12-01T11:15:05.629Z,13.62
2022-12-01T11:18:29.974Z,13.20
2022-12-01T11:21:33.137Z,11.88
2022-12-01T11:24:55.386Z,12.00
2022-12-01T11:28:02.123Z,12.30
2022-12-01T11:31:10.983Z,12.40
2022-12-01T11:34:25.692Z,11.12
2022-12-01T11:37:38.150Z,11.90
2022-12-01T11:40:58.761Z,10.33
2022-12-01T11:44:09.157Z,10.85
2022-12-01T11:47:24.640Z,11.52
2022-12-01T11:50:31.778Z,12.65
2022-12-01T11:53:37.599Z,12.13
2022-12-01T11:56:41.963Z,11.67
2022-12-01T11:59:45.108Z,11.55
2022-12-01T12:03:20.686Z,11.82
2022-12-01T12:06:39.853Z,11.93
2022-12-01T12:09:51.013Z,11.07
2022-12-01T12:13:09.788Z,11.27
2022-12-01T12:16:50.893Z,11.02
2022-12-01T12:20:27.794Z,10.50
2022-12-01T12:23:35.136Z,10.68
2022-12-01T12:26:50.438Z,10.70
2022-12-01T12:29:53.104Z,11.93
2022-12-01T12:33:19.859Z,11.57
2022-12-01T12:36:28.026Z,11.45
2022-12-01T12:39:47.842Z,11.77
2022-12-01T12:43:07.034Z,11.57
2022-12-01T12:46:23.131Z,12.23
2022-12-01T12:49:35.872Z,12.02
2022-12-01T12:52:54.517Z,10.80
2022-12-01T12:56:04.987Z,12.55
2022-12-01T12:59:35.491Z,11.65
2022-12-01T13:02:44.422Z,12.00
2022-12-01T13:06:00.785Z,11.70
2022-12-01T13:09:11.551Z,15.25
2022-12-01T13:12:17.327Z,10.15
2022-12-01T13:15:21.607Z,12.55
2022-12-01T13:18:39.773Z,11.33
2022-12-01T13:21:45.363Z,11.18
2022-12-01T13:24:48.481Z,12.27
2022-12-01T13:27:52.594Z,12.05
2022-12-01T13:31:01.949Z,11.95
2022-12-01T13:34:06.263Z,11.13
2022-12-01T13:37:11.735Z,11.93
2022-12-01T13:40:28.244Z,12.45
2022-12-01T13:43:32.273Z,12.45
2022-12-01T13:46:45.456Z,12.82
2022-12-01T13:49:50.199Z,11.80
2022-12-01T13:53:13.118Z,11.12
2022-12-01T13:56:15.971Z,11.07
2022-12-01T14:00:00.579Z,10.65
2022-12-01T14:03:12.837Z,11.82
2022-12-01T14:06:49.367Z,11.73
2022-12-01T14:09:56.452Z,12.18
2022-12-01T14:13:05.487Z,12.40
2022-12-01T14:16:08.858Z,12.07
2022-12-01T14:19:33.264Z,14.20
2022-12-01T14:22:44.069Z,13.10
2022-12-01T14:26:11.713Z,13.70
2022-12-01T14:29:43.979Z,13.88
2022-12-01T14:32:47.196Z,13.10
2022-12-01T14:35:50.680Z,13.85
2022-12-01T14:38:59.840Z,13.63
2022-12-01T14:43:01.498Z,14.00
2022-12-01T14:46:10.519Z,15.57
2022-12-01T14:49:24.173Z,15.68
2022-12-01T14:52:27.119Z,15.93
2022-12-01T14:55:50.331Z,17.97
2022-12-01T14:58:57.409Z,19.90
2022-12-01T15:02:09.317Z,20.02
2022-12-01T15:05:26.027Z,15.18
2022-12-01T15:08:41.881Z,15.82
2022-12-01T15:11:58.820Z,22.03
2022-12-01T15:15:01.454Z,23.95
2022-12-01T15:18:21.884Z,24.17
2022-12-01T15:21:30.871Z,21.33
2022-12-01T15:24:34.279Z,23.02
2022-12-01T15:27:38.112Z,25.93
2022-12-01T15:30:42.877Z,25.30
2022-12-01T15:33:51.660Z,29.17
2022-12-01T15:36:56.220Z,43.25
2022-12-01T15:43:33.167Z,65.33
2022-12-01T15:46:35.787Z,51.37
2022-12-01T15:49:49.475Z,41.25
2022-12-01T15:52:52.358Z,47.42
2022-12-01T15:55:59.289Z,47.22
2022-12-01T15:59:09.967Z,45.33
2022-12-01T16:02:32.908Z,50.03
2022-12-01T16:08:39.272Z,40.12
2022-12-01T16:12:17.742Z,34.03
2022-12-01T16:15:22.921Z,33.07
2022-12-01T16:18:32.149Z,33.13
2022-12-01T16:21:47.476Z,33.28
2022-12-01T16:24:56.358Z,32.83
2022-12-01T16:28:01.588Z,31.70
2022-12-01T16:31:06.395Z,32.97
2022-12-01T16:34:44.089Z,36.22
2022-12-01T16:37:40.221Z,44.08
2022-12-01T16:40:44.323Z,41.65
2022-12-01T16:44:12.603Z,50.97
2022-12-01T16:47:14.950Z,51.63
2022-12-01T16:50:22.671Z,57.05
2022-12-01T16:53:26.480Z,53.65
2022-12-01T16:56:29.555Z,52.33
2022-12-01T16:59:32.677Z,47.35
2022-12-01T17:02:36.125Z,42.80
2022-12-01T17:05:41.346Z,45.12
2022-12-01T17:08:46.326Z,44.22
2022-12-01T17:11:49.187Z,45.30
2022-12-01T17:14:52.437Z,45.67
2022-12-01T17:17:55.461Z,45.90
2022-12-01T17:21:07.606Z,46.35
2022-12-01T17:24:10.167Z,51.53
2022-12-01T17:27:13.571Z,44.90
2022-12-01T17:30:17.075Z,46.10
2022-12-01T17:33:20.377Z,49.47
2022-12-01T17:36:27.654Z,50.63
2022-12-01T17:39:30.922Z,50.95
2022-12-01T17:42:34.534Z,52.65
2022-12-01T17:45:42.224Z,48.85
2022-12-01T17:48:46.769Z,47.53
2022-12-01T17:51:49.893Z,46.28
2022-12-01T17:54:52.856Z,50.55
2022-12-01T17:57:56.627Z,51.03
2022-12-01T18:01:00.708Z,57.80
2022-12-01T18:04:07.210Z,56.63
2022-12-01T18:07:10.313Z,55.92
2022-12-01T18:10:13.841Z,53.72
2022-12-01T18:13:20.345Z,50.10
2022-12-01T18:16:28.377Z,49.65
2022-12-01T18:19:32.812Z,53.37
2022-12-01T18:22:36.492Z,50.42
2022-12-01T18:25:40.440Z,48.85
2022-12-01T18:28:43.989Z,45.58
2022-12-01T18:31:47.828Z,41.20
2022-12-01T18:34:51.519Z,41.10
2022-12-01T18:37:54.624Z,39.75
2022-12-01T18:40:59.552Z,41.10
2022-12-01T18:44:03.403Z,35.70
2022-12-01T18:47:07.272Z,38.33
2022-12-01T18:50:10.625Z,37.20
2022-12-01T18:53:14.830Z,38.05
2022-12-01T18:56:20.666Z,37.28
2022-12-01T18:59:23.986Z,35.78
2022-12-01T19:02:27.204Z,33.78
2022-12-01T19:05:33.883Z,37.00
2022-12-01T19:08:36.912Z,35.67
2022-12-01T19:11:41.326Z,39.47
2022-12-01T19:24:11.682Z,33.90
2022-12-01T19:27:15.646Z,36.00
2022-12-01T19:30:20.028Z,36.45
2022-12-01T19:33:23.617Z,34.50
2022-12-01T19:36:29.837Z,36.38
2022-12-01T19:39:33.638Z,40.33
2022-12-01T19:42:37.350Z,51.15
2022-12-01T19:45:40.454Z,56.40
2022-12-01T19:48:43.897Z,48.05
2022-12-01T19:51:47.226Z,41.37
2022-12-01T19:54:51.622Z,47.33
2022-12-01T19:57:55.096Z,45.10
2022-12-01T20:01:06.565Z,44.38
2022-12-01T20:04:10.062Z,43.47
2022-12-01T20:07:13.410Z,40.53
2022-12-01T20:10:20.616Z,37.70
2022-12-01T20:13:23.750Z,34.35
2022-12-01T20:16:28.744Z,34.53
2022-12-01T20:19:31.953Z,34.42
2022-12-01T20:22:40.079Z,35.30
2022-12-01T20:25:44.100Z,33.77
2022-12-01T20:28:50.933Z,32.80
2022-12-01T20:31:55.868Z,32.55
2022-12-01T20:34:59.434Z,32.63
2022-12-01T20:38:02.601Z,32.47
2022-12-01T20:41:06.839Z,31.90
2022-12-01T20:44:10.976Z,31.15
2022-12-01T20:47:17.932Z,31.67
2022-12-01T20:50:24.410Z,31.40
2022-12-01T20:53:27.919Z,30.90
2022-12-01T20:56:31.314Z,30.77
2022-12-01T20:59:36.434Z,32.05
2022-12-01T21:02:39.690Z,31.77
2022-12-01T21:05:44.393Z,32.75
2022-12-01T21:08:48.506Z,32.40
2022-12-01T21:12:11.776Z,33.93
2022-12-01T21:15:30.243Z,34.17
2022-12-01T21:18:53.488Z,34.25
2022-12-01T21:21:56.488Z,33.60
2022-12-01T21:25:17.346Z,34.10
2022-12-01T21:28:25.591Z,34.43
2022-12-01T21:31:29.238Z,31.00
2022-12-01T21:34:34.958Z,31.10
2022-12-01T21:37:37.944Z,29.60
2022-12-01T21:40:43.960Z,31.17
2022-12-01T21:43:46.905Z,29.57
2022-12-01T21:46:58.086Z,31.27
2022-12-01T21:50:09.564Z,28.58
2022-12-01T21:53:19.306Z,29.35
2022-12-01T21:56:25.608Z,29.20
2022-12-01T21:59:28.206Z,30.00
2022-12-01T22:03:00.601Z,30.95
2022-12-01T22:06:30.180Z,31.67
2022-12-01T22:09:36.632Z,32.60
2022-12-01T22:12:39.532Z,33.58
2022-12-01T22:15:42.222Z,34.37
2022-12-01T22:18:52.250Z,34.72
2022-12-01T22:22:24.958Z,35.35
2022-12-01T22:25:28.616Z,34.55
2022-12-01T22:28:31.382Z,35.67
2022-12-01T22:31:36.279Z,37.50
2022-12-01T22:34:57.972Z,35.38
2022-12-01T22:38:21.696Z,35.58
2022-12-01T22:41:24.334Z,34.13
2022-12-01T22:44:30.695Z,34.60
2022-12-01T22:47:33.392Z,34.60
2022-12-01T22:50:37.435Z,34.25
2022-12-01T22:53:41.604Z,33.47
2022-12-01T22:56:46.724Z,33.08
2022-12-01T22:59:50.478Z,33.00
2022-12-01T23:02:55.903Z,32.88
2022-12-01T23:05:58.682Z,33.72
2022-12-01T23:09:02.059Z,33.58
2022-12-01T23:12:10.605Z,33.25
2022-12-01T23:15:25.630Z,32.17
2022-12-01T23:18:32.198Z,33.47
2022-12-01T23:21:35.656Z,33.35
2022-12-01T23:24:40.018Z,32.72
2022-12-01T23:27:46.255Z,35.45
2022-12-01T23:30:53.296Z,33.10
2022-12-01T23:33:56.239Z,34.08
2022-12-01T23:36:58.788Z,33.45
2022-12-01T23:40:08.106Z,33.17
2022-12-01T23:43:25.500Z,34.72
2022-12-01T23:46:28.671Z,32.47
2022-12-01T23:49:34.947Z,34.17
2022-12-01T23:52:41.875Z,34.40
2022-12-01T23:55:44.476Z,34.15
2022-12-01T23:58:49.078Z,34.42
